Oregon Mtn Atmospheric Data: 05/15/2019 Summary  Detailed Graphs  Station List

  Temperature     Wind Precipitation Visibility
Timestamp Air Wet
Bulb
Dew-
point
24-hr
Max
24-hr
Min
Relative
Humidity
Atmospheric
Pressure
Avg
Speed
Avg
Dir
Spot
Speed
Spot
Dir
Max
Speed
Max
Dir
  Rate Situation Start End 1 hr 3 hr 6 hr 12 hr 24 hr   Situation
Date Time °F °F °F °F °F % in Hg mph ° mph ° mph ° Y/N in/hr text Date Time Date Time in in in in in mi text
05/15/2019 12:03 AM 54.50 51.44 49.64 68.72 51.62 82.0 Not Reported 4.25 E 4.03 E 6.49 E No 0.000 No Precipitation 05/14/2019 03:32 PM 05/14/2019 03:37 PM 0.004 0.004 0.004 0.004 0.004 1.24 Not Reported
05/15/2019 12:18 AM 54.86 51.26 48.38 68.72 51.62 79.0 Not Reported 3.36 NE 4.70 NE 5.59 E No 0.000 No Precipitation 05/14/2019 03:32 PM 05/14/2019 03:37 PM 0.004 0.004 0.004 0.004 0.004 1.24 Not Reported
05/15/2019 12:33 AM 54.50 51.26 48.74 68.72 51.62 81.0 Not Reported 4.03 E 4.25 E 4.25 NE No 0.000 No Precipitation 05/14/2019 03:32 PM 05/14/2019 03:37 PM 0.000 0.004 0.004 0.004 0.004 1.24 Not Reported
05/15/2019 12:48 AM 54.32 51.26 48.92 68.72 51.62 81.0 Not Reported 2.91 NE 1.79 NE 6.93 E No 0.000 No Precipitation 05/14/2019 03:32 PM 05/14/2019 03:37 PM 0.000 0.004 0.004 0.004 0.004 1.24 Not Reported
05/15/2019 01:03 AM 54.14 51.26 49.28 68.72 51.62 83.0 Not Reported 4.25 E 5.37 E 4.92 E No 0.000 No Precipitation 05/14/2019 03:32 PM 05/14/2019 03:37 PM 0.000 0.004 0.004 0.004 0.004 1.24 Not Reported
05/15/2019 01:18 AM 54.14 51.44 49.28 68.72 51.62 83.0 Not Reported 1.34 NE 1.12 E 5.82 E No 0.000 No Precipitation 05/14/2019 03:32 PM 05/14/2019 03:37 PM 0.000 0.004 0.004 0.004 0.004 1.24 Not Reported
05/15/2019 01:33 AM 53.96 51.08 48.74 68.72 51.62 82.0 Not Reported 3.80 NE 4.03 NE 5.37 NE No 0.000 No Precipitation 05/14/2019 03:32 PM 05/14/2019 03:37 PM 0.000 0.004 0.004 0.004 0.004 1.24 Not Reported
05/15/2019 01:48 AM 54.32 51.08 48.38 68.72 51.62 80.0 Not Reported 4.47 E 4.70 E 6.26 E No 0.000 No Precipitation 05/14/2019 03:32 PM 05/14/2019 03:37 PM 0.000 0.004 0.004 0.004 0.004 1.24 Not Reported
05/15/2019 02:03 AM 53.96 50.90 48.20 68.72 51.62 80.0 Not Reported 5.14 E 6.71 E 3.80 E No 0.000 No Precipitation 05/14/2019 03:32 PM 05/14/2019 03:37 PM 0.000 0.004 0.004 0.004 0.004 1.24 Not Reported
05/15/2019 02:18 AM 53.78 50.72 48.20 68.72 51.62 81.0 Not Reported 5.59 NE 6.26 E 9.62 E No 0.000 No Precipitation 05/14/2019 03:32 PM 05/14/2019 03:37 PM 0.000 0.004 0.004 0.004 0.004 1.24 Not Reported
05/15/2019 02:33 AM 53.78 50.72 48.20 68.72 51.62 81.0 Not Reported 7.38 E 4.47 E 9.17 E No 0.000 No Precipitation 05/14/2019 03:32 PM 05/14/2019 03:37 PM 0.000 0.000 0.004 0.004 0.004 1.24 Not Reported
05/15/2019 02:49 AM 53.42 50.54 48.20 68.72 51.62 83.0 Not Reported 5.59 E 5.59 E 8.50 NE No 0.000 No Precipitation 05/14/2019 03:32 PM 05/14/2019 03:37 PM 0.000 0.000 0.004 0.004 0.004 1.24 Not Reported
05/15/2019 03:04 AM 53.42 50.54 48.20 68.72 51.62 82.0 Not Reported 5.59 E 6.71 E 8.50 E No 0.000 No Precipitation 05/14/2019 03:32 PM 05/14/2019 03:37 PM 0.000 0.000 0.004 0.004 0.004 1.24 Not Reported
05/15/2019 03:18 AM 53.60 50.72 48.02 68.72 51.62 80.0 Not Reported 4.03 E 7.16 NE 6.71 E No 0.000 No Precipitation 05/14/2019 03:32 PM 05/14/2019 03:37 PM 0.000 0.000 0.004 0.004 0.004 1.24 Not Reported
05/15/2019 03:33 AM 53.96 50.36 47.48 68.72 51.62 78.0 Not Reported 5.82 NE 5.82 NE 8.05 E No 0.000 No Precipitation 05/14/2019 03:32 PM 05/14/2019 03:37 PM 0.000 0.000 0.004 0.004 0.004 1.24 Not Reported
05/15/2019 03:48 AM 53.60 50.36 47.66 68.72 51.62 80.0 Not Reported 8.72 E 9.62 E 6.71 E No 0.000 No Precipitation 05/14/2019 03:32 PM 05/14/2019 03:37 PM 0.000 0.000 0.004 0.004 0.004 1.24 Not Reported
05/15/2019 04:04 AM 53.60 50.54 47.66 68.72 51.62 79.0 Not Reported 3.58 E 5.59 NE 8.72 E No 0.000 No Precipitation 05/14/2019 03:32 PM 05/14/2019 03:37 PM 0.000 0.000 0.004 0.004 0.004 1.24 Not Reported
05/15/2019 04:19 AM 53.24 50.54 48.38 68.72 51.62 82.0 Not Reported 3.13 E 4.47 E 5.82 E No 0.000 No Precipitation 05/14/2019 03:32 PM 05/14/2019 03:37 PM 0.000 0.000 0.004 0.004 0.004 1.24 Not Reported
05/15/2019 04:33 AM 52.88 50.36 48.38 68.72 51.62 84.0 Not Reported 6.26 E 4.03 NE 6.93 NE No 0.000 No Precipitation 05/14/2019 03:32 PM 05/14/2019 03:37 PM 0.000 0.000 0.004 0.004 0.004 1.24 Not Reported
05/15/2019 04:48 AM 52.88 50.36 48.38 68.72 51.62 84.0 Not Reported 8.95 E 6.71 E 10.51 E No 0.000 No Precipitation 05/14/2019 03:32 PM 05/14/2019 03:37 PM 0.000 0.000 0.004 0.004 0.004 1.24 Not Reported
05/15/2019 05:04 AM 53.06 50.36 48.20 68.72 51.62 83.0 Not Reported 5.59 E 7.61 E 8.28 E No 0.000 No Precipitation 05/14/2019 03:32 PM 05/14/2019 03:37 PM 0.000 0.000 0.004 0.004 0.004 1.24 Not Reported
05/15/2019 05:18 AM 53.42 50.36 47.66 68.72 51.62 79.0 Not Reported 7.61 E 9.17 E 8.05 E No 0.000 No Precipitation 05/14/2019 03:32 PM 05/14/2019 03:37 PM 0.000 0.000 0.004 0.004 0.004 1.24 Not Reported
05/15/2019 05:33 AM 54.50 50.72 47.48 68.72 51.62 76.0 Not Reported 7.61 E 7.16 E 9.40 E No 0.000 No Precipitation 05/14/2019 03:32 PM 05/14/2019 03:37 PM 0.000 0.000 0.000 0.004 0.004 1.24 Not Reported
05/15/2019 05:48 AM 53.96 50.18 46.94 68.72 51.62 77.0 Not Reported 8.50 E 4.92 E 10.51 E No 0.000 No Precipitation 05/14/2019 03:32 PM 05/14/2019 03:37 PM 0.000 0.000 0.000 0.004 0.004 1.24 Not Reported
05/15/2019 06:03 AM 53.96 50.00 46.94 68.72 51.62 77.0 Not Reported 8.50 E 10.96 E 10.96 E No 0.000 No Precipitation 05/14/2019 03:32 PM 05/14/2019 03:37 PM 0.000 0.000 0.000 0.004 0.004 1.24 Not Reported
05/15/2019 06:18 AM 53.78 50.18 46.94 68.72 51.62 78.0 Not Reported 5.82 E 5.82 E 12.75 NE No 0.000 No Precipitation 05/14/2019 03:32 PM 05/14/2019 03:37 PM 0.000 0.000 0.000 0.004 0.004 1.24 Not Reported
05/15/2019 06:33 AM 53.42 50.00 46.58 68.72 51.62 77.0 Not Reported 8.05 E 2.01 SE 11.18 E No 0.000 No Precipitation 05/14/2019 03:32 PM 05/14/2019 03:37 PM 0.000 0.000 0.000 0.004 0.004 1.24 Not Reported
05/15/2019 06:49 AM 52.88 50.00 47.48 68.72 51.62 82.0 Not Reported 4.70 SE 3.13 E 10.74 E No 0.000 No Precipitation 05/14/2019 03:32 PM 05/14/2019 03:37 PM 0.000 0.000 0.000 0.004 0.004 1.24 Not Reported
05/15/2019 07:03 AM 52.52 50.00 47.84 68.72 51.62 83.0 Not Reported 7.61 E 9.17 E 12.08 E No 0.000 No Precipitation 05/14/2019 03:32 PM 05/14/2019 03:37 PM 0.000 0.000 0.000 0.004 0.004 1.24 Not Reported
05/15/2019 07:18 AM 53.24 49.82 46.76 68.72 51.62 79.0 Not Reported 8.05 E 6.93 E 12.75 E No 0.000 No Precipitation 05/14/2019 03:32 PM 05/14/2019 03:37 PM 0.000 0.000 0.000 0.004 0.004 1.24 Not Reported
05/15/2019 07:33 AM 52.52 49.82 47.48 68.72 51.80 82.0 Not Reported 7.38 E 10.51 E 10.07 E No 0.000 No Precipitation 05/14/2019 11:21 PM 05/14/2019 11:26 PM 0.004 0.004 0.004 0.008 0.008 1.24 Not Reported
05/15/2019 07:48 AM 51.98 49.64 48.02 68.72 51.62 86.0 Not Reported 8.50 E 6.93 NE 11.41 E No 0.000 No Precipitation 05/14/2019 11:41 PM 05/14/2019 11:46 PM 0.008 0.008 0.008 0.008 0.008 1.24 Not Reported
05/15/2019 08:03 AM 51.62 50.00 48.20 68.72 51.62 88.0 Not Reported 4.92 E 6.04 E 9.84 E Yes 0.043 Rain Slight 05/14/2019 11:58 PM   0.008 0.008 0.008 0.016 0.016 1.24 Not Reported
05/15/2019 08:18 AM 51.98 49.82 47.84 68.72 51.62 85.0 Not Reported 10.51 E 8.95 E 8.95 E No 0.000 No Precipitation 05/14/2019 11:58 PM 05/15/2019 12:03 AM 0.008 0.008 0.008 0.016 0.016 1.24 Not Reported
05/15/2019 08:33 AM 51.44 50.00 48.74 68.72 51.26 90.0 Not Reported 5.82 E 6.93 E 10.07 SE Yes 0.085 Rain Moderate 05/15/2019 12:24 AM   0.020 0.028 0.028 0.031 0.031 1.24 Not Reported
05/15/2019 08:49 AM 51.26 50.18 49.46 68.72 51.08 93.0 Not Reported 8.72 E 10.07 NE 10.96 E Yes 0.043 Rain Slight 05/15/2019 12:24 AM   0.043 0.055 0.055 0.059 0.059 1.24 Not Reported
05/15/2019 09:04 AM 51.08 50.00 48.74 68.72 51.08 91.0 Not Reported 5.82 NE 4.70 NE 10.07 NE Yes 0.043 Rain Slight 05/15/2019 01:03 AM   0.059 0.071 0.071 0.075 0.075 1.24 Not Reported
05/15/2019 09:19 AM 51.26 48.92 47.12 68.72 51.08 86.0 Not Reported 6.71 NE 5.37 NE 7.38 NE Yes 0.085 Rain Moderate 05/15/2019 01:03 AM   0.079 0.091 0.091 0.091 0.091 1.24 Not Reported
05/15/2019 09:33 AM 50.18 48.38 46.94 68.72 50.00 89.0 Not Reported 5.37 E 4.70 NE 12.75 N Yes 0.085 Rain Moderate 05/15/2019 01:03 AM   0.091 0.118 0.118 0.122 0.122 1.24 Not Reported
05/15/2019 09:49 AM 49.82 48.38 47.30 68.72 49.82 91.0 Not Reported 3.36 E 4.25 E 7.83 E Yes 0.043 Rain Slight 05/15/2019 01:03 AM   0.091 0.142 0.142 0.146 0.146 1.24 Not Reported
05/15/2019 10:04 AM 50.00 48.74 47.66 68.72 49.46 92.0 Not Reported 7.83 E 10.74 E 7.61 SE Yes 0.043 Rain Slight 05/15/2019 01:56 AM   0.083 0.154 0.154 0.157 0.157 1.24 Not Reported
05/15/2019 10:18 AM 50.18 48.56 47.30 68.72 49.46 89.0 Not Reported 4.70 SE 5.14 E 10.74 E No 0.000 No Precipitation 05/15/2019 02:10 AM 05/15/2019 02:15 AM 0.067 0.157 0.157 0.161 0.161 1.24 Not Reported
05/15/2019 10:34 AM 50.18 48.38 47.12 68.72 49.46 88.0 Not Reported 2.91 E 2.68 SE 10.07 E No 0.000 No Precipitation 05/15/2019 02:23 AM 05/15/2019 02:28 AM 0.039 0.157 0.161 0.165 0.165 1.24 Not Reported
05/15/2019 10:48 AM 50.18 48.20 46.40 68.72 49.46 86.0 Not Reported 5.37 E 8.28 NE 6.93 SE Yes 0.043 Rain Slight 05/15/2019 02:35 AM   0.035 0.165 0.177 0.181 0.181 1.24 Not Reported
05/15/2019 11:03 AM 50.00 48.38 46.76 68.72 49.46 88.0 Not Reported 5.14 E 1.57 SE 7.61 E No 0.000 No Precipitation 05/15/2019 02:53 AM 05/15/2019 03:02 AM 0.031 0.169 0.185 0.185 0.185 1.24 Not Reported
05/15/2019 11:18 AM 50.90 48.92 46.94 68.72 49.46 87.0 Not Reported 1.79 E 0.45 SE 10.74 NE Yes 0.043 Rain Slight 05/15/2019 03:04 AM   0.039 0.185 0.197 0.201 0.201 1.24 Not Reported
05/15/2019 11:33 AM 50.00 48.38 46.58 68.72 49.46 87.0 Not Reported 4.03 E 4.70 NE 6.49 E Yes 0.043 Rain Slight 05/15/2019 03:29 AM   0.043 0.181 0.205 0.205 0.209 1.24 Not Reported
05/15/2019 11:48 AM 50.54 49.10 47.84 68.72 49.46 90.0 Not Reported 0.67 E 0.00 S 6.04 E Yes 0.043 Rain Slight 05/15/2019 03:35 AM   0.043 0.169 0.224 0.224 0.224 1.24 Not Reported
05/15/2019 12:03 PM 50.54 48.56 46.94 68.72 49.46 87.0 Not Reported 6.04 NE 6.26 E 9.62 NE Yes 0.085 Rain Moderate 05/15/2019 03:35 AM   0.063 0.177 0.244 0.244 0.252 1.24 Not Reported
05/15/2019 12:19 PM 50.72 48.74 47.48 68.72 49.46 87.0 Not Reported 6.26 NE 8.28 NE 6.49 E Yes 0.043 Rain Slight 05/15/2019 04:16 AM   0.059 0.165 0.260 0.260 0.264 1.24 Not Reported
05/15/2019 12:32 PM 50.54 48.92 47.48 68.72 49.46 89.0 Not Reported 6.71 NE 6.04 NE 9.17 NE Yes 0.043 Rain Slight 05/15/2019 04:21 AM   0.063 0.154 0.272 0.272 0.276 1.24 Not Reported
05/15/2019 12:47 PM 51.08 48.92 46.94 68.72 49.46 85.0 Not Reported 6.26 NE 10.07 NE 8.05 E Yes 0.043 Rain Slight 05/15/2019 04:42 AM   0.055 0.138 0.280 0.280 0.283 1.24 Not Reported
05/15/2019 01:02 PM 51.08 48.92 47.66 68.72 49.46 86.0 Not Reported 6.49 E 8.72 NE 11.18 NE Yes 0.043 Rain Slight 05/15/2019 05:01 AM   0.039 0.134 0.287 0.287 0.291 1.24 Not Reported
05/15/2019 01:17 PM 51.62 50.18 48.92 68.72 49.46 90.0 Not Reported 3.80 SE 5.37 S 8.72 NE Yes 0.043 Rain Slight 05/15/2019 05:15 AM   0.035 0.138 0.295 0.295 0.299 1.24 Not Reported
05/15/2019 01:32 PM 51.08 49.46 48.02 68.72 49.46 89.0 Not Reported 6.49 E 7.38 E 7.16 E No 0.000 No Precipitation 05/15/2019 05:27 AM 05/15/2019 05:32 AM 0.028 0.138 0.295 0.299 0.303 1.24 Not Reported
05/15/2019 01:48 PM 51.44 49.64 48.02 68.72 49.46 87.0 Not Reported 3.58 SE 4.03 E 7.38 E Yes 0.043 Rain Slight 05/15/2019 05:48 AM   0.035 0.138 0.307 0.315 0.315 1.24 Not Reported
05/15/2019 02:03 PM 51.26 49.64 48.74 68.72 49.46 90.0 Not Reported 3.36 E 5.37 E 10.51 E Yes 0.043 Rain Slight 05/15/2019 05:53 AM   0.039 0.142 0.315 0.323 0.331 1.24 Not Reported
05/15/2019 02:18 PM 51.08 49.28 48.02 68.72 49.46 88.0 Not Reported 7.38 NE 6.26 E 10.07 NE Yes 0.043 Rain Slight 05/15/2019 05:53 AM   0.039 0.138 0.323 0.335 0.343 1.24 Not Reported
05/15/2019 02:33 PM 51.08 49.64 48.38 68.72 49.46 90.0 Not Reported 6.04 E 7.16 E 8.50 E No 0.000 No Precipitation 05/15/2019 06:25 AM 05/15/2019 06:30 AM 0.039 0.134 0.315 0.343 0.343 1.24 Not Reported
05/15/2019 02:48 PM 51.26 49.64 48.74 68.72 49.46 90.0 Not Reported 5.82 E 5.14 SE 8.05 E Yes 0.043 Rain Slight 05/15/2019 06:42 AM   0.035 0.126 0.299 0.350 0.354 1.24 Not Reported
05/15/2019 03:04 PM 51.08 49.28 48.38 68.72 49.46 88.0 Not Reported 5.59 NE 5.14 NE 8.05 NE No 0.000 No Precipitation 05/15/2019 06:57 AM 05/15/2019 07:02 AM 0.031 0.110 0.287 0.354 0.362 1.24 Not Reported
05/15/2019 03:18 PM 51.26 49.82 48.56 68.72 49.46 90.0 Not Reported 4.92 NE 7.83 NE 6.49 SE Yes 0.085 Rain Moderate 05/15/2019 07:06 AM   0.035 0.110 0.283 0.374 0.374 1.24 Not Reported
05/15/2019 03:33 PM 51.08 49.28 47.84 68.72 49.46 88.0 Not Reported 8.95 NE 8.28 NE 13.20 NE Yes 0.043 Rain Slight 05/15/2019 07:06 AM   0.051 0.122 0.276 0.394 0.394 1.24 Not Reported
05/15/2019 03:48 PM 51.26 50.00 48.74 68.72 49.46 90.0 Not Reported 4.03 E 6.26 NE 11.63 NE No 0.000 No Precipitation 05/15/2019 07:42 AM 05/15/2019 07:47 AM 0.051 0.122 0.260 0.402 0.402 1.24 Not Reported
05/15/2019 04:03 PM 51.44 49.82 48.38 68.72 49.46 89.0 Not Reported 7.16 E 4.03 NE 9.17 NE No 0.000 No Precipitation 05/15/2019 07:54 AM 05/15/2019 07:59 AM 0.043 0.118 0.252 0.402 0.409 1.24 Not Reported
05/15/2019 04:18 PM 51.44 49.46 47.84 68.72 49.46 87.0 Not Reported 6.93 E 8.72 E 10.29 E Yes 0.043 Rain Slight 05/15/2019 08:16 AM   0.039 0.118 0.256 0.413 0.413 1.24 Not Reported
05/15/2019 04:33 PM 51.80 49.82 48.38 68.72 49.46 88.0 Not Reported 6.26 E 9.62 E 9.62 E Yes 0.043 Rain Slight 05/15/2019 08:30 AM   0.020 0.118 0.256 0.413 0.421 1.24 Not Reported
05/15/2019 04:48 PM 52.34 50.00 47.48 67.64 49.46 83.0 Not Reported 9.40 NE 6.49 N 9.84 E No 0.000 No Precipitation 05/15/2019 08:30 AM 05/15/2019 08:35 AM 0.016 0.102 0.240 0.413 0.421 1.24 Not Reported
05/15/2019 05:04 PM 51.98 49.82 48.02 67.64 49.46 86.0 Not Reported 9.17 E 7.16 NE 10.29 E No 0.000 No Precipitation 05/15/2019 08:55 AM 05/15/2019 09:00 AM 0.016 0.091 0.236 0.421 0.421 1.24 Not Reported
05/15/2019 05:18 PM 51.44 49.64 48.20 66.20 49.46 88.0 Not Reported 4.70 E 5.37 E 10.96 E Yes 0.043 Rain Slight 05/15/2019 09:14 AM   0.008 0.083 0.224 0.421 0.429 1.24 Not Reported
05/15/2019 05:33 PM 51.08 49.82 48.92 65.66 49.46 92.0 Not Reported 2.91 SE 6.49 E 9.84 E Yes 0.085 Rain Moderate 05/15/2019 09:14 AM   0.031 0.102 0.240 0.449 0.453 1.24 Not Reported
05/15/2019 05:50 PM 51.44 49.82 48.56 x 49.46 91.0 Not Reported 5.59 E 3.80 E 8.05 x Yes 0.128 Rain Moderate 05/15/2019 09:14 AM   0.063 0.130 0.256 0.480 0.480 1.24 Not Reported
05/15/2019 06:03 PM 51.08 50.00 49.28 64.58 49.46 92.0 Not Reported 4.25 E 7.38 E 8.05 E Yes 0.043 Rain Slight 05/15/2019 09:14 AM   0.075 0.138 0.244 0.492 0.500 1.24 Not Reported
05/15/2019 06:18 PM 51.08 50.00 48.74 63.86 49.46 91.0 Not Reported 6.04 E 5.82 E 12.97 NE Yes 0.085 Rain Moderate 05/15/2019 09:14 AM   0.098 0.150 0.264 0.524 0.528 1.24 Not Reported
05/15/2019 06:34 PM 51.08 49.82 48.56 63.32 49.46 91.0 Not Reported 6.04 E 9.62 NE 10.07 NE Yes 0.085 Rain Moderate 05/15/2019 09:14 AM   0.098 0.154 0.276 0.547 0.551 1.24 Not Reported
05/15/2019 06:49 PM 51.26 49.82 48.74 63.32 49.46 90.0 Not Reported 6.04 NE 4.25 E 12.75 NE No 0.000 No Precipitation 05/15/2019 09:14 AM 05/15/2019 10:45 AM 0.079 0.154 0.276 0.555 0.559 1.24 Not Reported
05/15/2019 07:03 PM 51.26 49.82 48.56 62.60 49.46 90.0 Not Reported 6.71 NE 4.92 N 10.07 NE Yes 0.043 Rain Slight 05/15/2019 11:00 AM   0.067 0.157 0.276 0.563 0.567 1.24 Not Reported
05/15/2019 07:18 PM 50.90 49.82 48.74 61.88 49.46 92.0 Not Reported 5.37 E 6.04 SE 8.28 E Yes 0.043 Rain Slight 05/15/2019 11:14 AM   0.051 0.161 0.280 0.575 0.579 1.24 Not Reported
05/15/2019 07:33 PM 51.26 49.46 48.02 61.52 49.46 88.0 Not Reported 9.62 NE 9.17 NE 12.30 NE Yes 0.043 Rain Slight 05/15/2019 11:31 AM   0.039 0.165 0.283 0.579 0.587 1.24 Not Reported
05/15/2019 07:48 PM 50.90 49.64 48.20 61.16 49.46 90.0 Not Reported 6.04 NE 4.70 NE 10.96 NE Yes 0.085 Rain Moderate 05/15/2019 11:44 AM   0.039 0.177 0.280 0.587 0.598 1.24 Not Reported
05/15/2019 08:03 PM 50.72 49.46 48.20 60.80 49.46 90.0 Not Reported 5.37 E 8.95 E 8.28 SE Yes 0.043 Rain Slight 05/15/2019 11:44 AM   0.039 0.185 0.280 0.594 0.610 1.24 Not Reported
05/15/2019 08:18 PM 50.72 49.46 48.38 60.44 49.46 91.0 Not Reported 4.70 E 5.59 E 10.74 NE Yes 0.184 Rain Moderate 05/15/2019 12:06 PM   0.059 0.205 0.295 0.622 0.634 1.24 Not Reported
05/15/2019 08:33 PM 50.54 49.46 48.38 60.26 49.46 92.0 Not Reported 6.04 E 4.25 E 13.65 NE Yes 0.043 Rain Slight 05/15/2019 12:06 PM   0.071 0.205 0.311 0.626 0.654 1.24 Not Reported
05/15/2019 08:49 PM 50.90 49.28 47.84 59.90 49.46 88.0 Not Reported 6.93 NE 14.54 NE 9.40 E Yes 0.043 Rain Slight 05/15/2019 12:37 PM   0.075 0.189 0.315 0.614 0.669 1.24 Not Reported
05/15/2019 09:03 PM 50.90 49.10 47.84 59.36 49.46 90.0 Not Reported 6.71 NE 8.50 N 12.97 NE Yes 0.043 Rain Slight 05/15/2019 12:37 PM   0.083 0.189 0.331 0.618 0.689 1.24 Not Reported
05/15/2019 09:19 PM 50.36 48.92 47.84 59.18 49.46 90.0 Not Reported 6.26 E 5.14 E 8.95 NE Yes 0.128 Rain Moderate 05/15/2019 12:37 PM   0.083 0.197 0.343 0.626 0.724 1.24 Not Reported
05/15/2019 09:34 PM 50.54 48.74 47.30 58.28 49.46 88.0 Not Reported 9.40 NE 6.71 NE 9.84 NE Yes 0.085 Rain Moderate 05/15/2019 12:37 PM   0.091 0.197 0.350 0.622 0.748 1.24 Not Reported
05/15/2019 09:48 PM 50.36 48.74 47.48 58.28 49.46 89.0 Not Reported 8.95 NE 8.28 NE 12.53 NE Yes 0.085 Rain Moderate 05/15/2019 12:37 PM   0.091 0.205 0.354 0.618 0.764 1.24 Not Reported
05/15/2019 10:03 PM 49.64 48.38 47.30 58.28 49.46 91.0 Not Reported 10.74 NE 7.61 NE 12.08 NE Yes 0.184 Rain Moderate 05/15/2019 12:37 PM   0.110 0.236 0.394 0.646 0.803 1.24 Not Reported
05/15/2019 10:18 PM 49.46 48.38 47.48 58.10 49.46 92.0 Not Reported 6.93 E 5.14 NE 14.99 NE Yes 0.128 Rain Moderate 05/15/2019 12:37 PM   0.110 0.256 0.413 0.669 0.831 1.24 Not Reported
05/15/2019 10:33 PM 49.64 48.20 47.12 58.10 49.46 90.0 Not Reported 7.83 NE 7.83 E 11.63 NE Yes 0.128 Rain Moderate 05/15/2019 12:37 PM   0.122 0.280 0.441 0.701 0.866 1.24 Not Reported
05/15/2019 10:48 PM 50.18 48.20 45.86 57.38 49.46 86.0 Not Reported 13.20 NE 8.05 N 11.41 NE Yes 0.085 Rain Moderate 05/15/2019 12:37 PM   0.130 0.295 0.472 0.709 0.890 1.24 Not Reported
05/15/2019 11:03 PM 50.90 48.02 45.50 56.12 49.46 81.0 Not Reported 9.62 NE 8.05 NE 12.53 E Yes 0.043 Rain Slight 05/15/2019 02:57 PM   0.098 0.291 0.472 0.709 0.902 1.24 Not Reported
05/15/2019 11:18 PM 50.00 48.20 46.22 55.76 49.46 87.0 Not Reported 6.49 NE 6.71 NE 11.63 E Yes 0.043 Rain Slight 05/15/2019 03:15 PM   0.075 0.272 0.480 0.709 0.906 1.24 Not Reported
05/15/2019 11:33 PM 50.18 48.20 46.58 55.22 49.46 87.0 Not Reported 8.05 NE 3.58 NE 12.75 E Yes 0.043 Rain Slight 05/15/2019 03:15 PM   0.059 0.268 0.472 0.709 0.921 1.24 Not Reported
05/15/2019 11:48 PM 49.82 48.38 46.76 55.22 49.46 88.0 Not Reported 6.71 E 6.04 SE 10.74 NE Yes 0.043 Rain Slight 05/15/2019 03:47 PM   0.035 0.256 0.449 0.701 0.925 1.24 Not Reported